createdAt,value
2019-04-25T00:00:03.242Z,12.6061
2019-04-25T00:00:13.256Z,14.6882
2019-04-25T00:00:28.206Z,14.4776
2019-04-25T00:00:32.247Z,13.8207
2019-04-25T00:00:43.124Z,12.5944
2019-04-25T00:00:53.262Z,11.7820
2019-04-25T00:01:03.429Z,12.1202
2019-04-25T00:01:13.246Z,12.5464
2019-04-25T00:01:23.236Z,12.0226
2019-04-25T00:01:33.234Z,11.0783
2019-04-25T00:01:43.975Z,11.3369
2019-04-25T00:01:52.359Z,10.9312
2019-04-25T00:02:02.226Z,10.7179
2019-04-25T00:02:12.247Z,11.7967
2019-04-25T00:02:22.207Z,12.6716
2019-04-25T00:02:32.539Z,14.8003
2019-04-25T00:02:42.708Z,13.7839
2019-04-25T00:02:53.289Z,12.1723
2019-04-25T00:03:03.264Z,12.8138
2019-04-25T00:03:13.234Z,12.1941
2019-04-25T00:03:23.241Z,12.8408
2019-04-25T00:03:33.234Z,11.7150
2019-04-25T00:03:43.665Z,12.2496
2019-04-25T00:03:54.246Z,12.3671
2019-04-25T00:04:02.024Z,11.4258
2019-04-25T00:04:12.271Z,10.3506
2019-04-25T00:04:22.266Z,13.1713
2019-04-25T00:04:32.257Z,13.7145
2019-04-25T00:04:42.643Z,14.8398
2019-04-25T00:04:53.261Z,14.3941
2019-04-25T00:05:03.396Z,12.8056
2019-04-25T00:05:13.252Z,12.4212
2019-04-25T00:05:22.245Z,10.9983
2019-04-25T00:05:32.232Z,10.2837
2019-04-25T00:05:42.778Z,10.5609
2019-04-25T00:05:53.253Z,10.0142
2019-04-25T00:06:03.248Z,10.1560
2019-04-25T00:06:12.260Z,11.0340
2019-04-25T00:06:23.066Z,12.7858
2019-04-25T00:06:33.266Z,14.0304
2019-04-25T00:06:43.992Z,12.8931
2019-04-25T00:06:52.278Z,12.1604
2019-04-25T00:07:02.334Z,11.3870
2019-04-25T00:07:12.268Z,11.3166
2019-04-25T00:07:22.252Z,12.8264
2019-04-25T00:07:32.849Z,12.5760
2019-04-25T00:07:43.884Z,12.9746
2019-04-25T00:07:54.247Z,12.7230
2019-04-25T00:08:04.272Z,11.5812
2019-04-25T00:08:11.584Z,11.5953
2019-04-25T00:08:24.251Z,10.2059
2019-04-25T00:08:34.263Z,9.3254
2019-04-25T00:08:42.719Z,8.5667
2019-04-25T00:08:53.456Z,9.5744
2019-04-25T00:09:03.221Z,11.8398
2019-04-25T00:09:13.259Z,12.0996
2019-04-25T00:09:23.248Z,11.4217
2019-04-25T00:09:33.237Z,10.5794
2019-04-25T00:09:44.056Z,10.4482
2019-04-25T00:09:51.705Z,10.6611
2019-04-25T00:10:01.631Z,11.2003
2019-04-25T00:10:11.738Z,12.5950
2019-04-25T00:10:23.257Z,12.5732
2019-04-25T00:10:33.248Z,11.1597
2019-04-25T00:10:43.860Z,10.7858
2019-04-25T00:10:54.247Z,10.5069
2019-04-25T00:11:01.699Z,10.2687
2019-04-25T00:11:12.240Z,9.8378
2019-04-25T00:11:21.560Z,10.4952
2019-04-25T00:11:33.267Z,9.8317
2019-04-25T00:11:46.627Z,8.8883
2019-04-25T00:11:52.302Z,9.4685
2019-04-25T00:12:02.342Z,10.5643
2019-04-25T00:12:12.227Z,10.8413
2019-04-25T00:12:22.391Z,11.2891
2019-04-25T00:12:32.243Z,10.9696
2019-04-25T00:12:43.218Z,11.3620
2019-04-25T00:12:53.239Z,11.2339
2019-04-25T00:13:03.601Z,10.6041
2019-04-25T00:13:14.239Z,10.0108
2019-04-25T00:13:21.807Z,9.8519
2019-04-25T00:13:32.202Z,8.7404
2019-04-25T00:13:43.244Z,9.4297
2019-04-25T00:13:51.614Z,10.0324
2019-04-25T00:14:01.613Z,10.3412
2019-04-25T00:14:14.200Z,10.3680
2019-04-25T00:14:22.573Z,10.7509
2019-04-25T00:14:32.213Z,11.5525
2019-04-25T00:14:42.498Z,12.0236
2019-04-25T00:14:52.201Z,10.1574
2019-04-25T00:15:02.236Z,8.0775
2019-04-25T00:15:12.251Z,8.3614
2019-04-25T00:15:22.421Z,9.2394
2019-04-25T00:15:32.243Z,9.4746
2019-04-25T00:15:44.610Z,9.1809
2019-04-25T00:15:52.235Z,9.1779
2019-04-25T00:16:02.209Z,10.0023
2019-04-25T00:16:12.203Z,9.3450
2019-04-25T00:16:22.237Z,10.3745
2019-04-25T00:16:32.259Z,9.8886
2019-04-25T00:16:43.086Z,8.8786
2019-04-25T00:16:51.839Z,9.2972
2019-04-25T00:17:02.233Z,11.1864
2019-04-25T00:17:12.227Z,12.2403
2019-04-25T00:17:22.245Z,10.8401
2019-04-25T00:17:32.248Z,10.5338
2019-04-25T00:17:43.263Z,9.9910
2019-04-25T00:17:53.239Z,9.4354
2019-04-25T00:18:03.240Z,9.7304
2019-04-25T00:18:13.245Z,11.1517
2019-04-25T00:18:23.403Z,11.2743
2019-04-25T00:18:33.225Z,10.8706
2019-04-25T00:18:43.235Z,10.3775
2019-04-25T00:18:53.246Z,9.2610
2019-04-25T00:19:03.245Z,9.9133
2019-04-25T00:19:13.244Z,9.0853
2019-04-25T00:19:23.221Z,7.7879
2019-04-25T00:19:33.337Z,7.4305
2019-04-25T00:19:43.355Z,8.2631
2019-04-25T00:19:53.256Z,8.8185
2019-04-25T00:20:03.245Z,8.8492
2019-04-25T00:20:12.211Z,8.8382
2019-04-25T00:20:22.232Z,9.1554
2019-04-25T00:20:32.246Z,9.2686
2019-04-25T00:20:43.526Z,10.1361
2019-04-25T00:20:53.226Z,10.5719
2019-04-25T00:21:03.232Z,10.6967
2019-04-25T00:21:13.247Z,10.1447
2019-04-25T00:21:23.246Z,8.7962
2019-04-25T00:21:33.884Z,7.7632
2019-04-25T00:21:44.578Z,8.6768
2019-04-25T00:21:51.667Z,8.7571
2019-04-25T00:22:02.328Z,9.5525
2019-04-25T00:22:12.212Z,10.5377
2019-04-25T00:22:22.250Z,11.2464
2019-04-25T00:22:32.242Z,9.1922
2019-04-25T00:22:42.832Z,8.0755
2019-04-25T00:22:53.428Z,8.5093
2019-04-25T00:23:03.253Z,9.2129
2019-04-25T00:23:13.247Z,9.5850
2019-04-25T00:23:23.239Z,9.2188
2019-04-25T00:23:39.376Z,7.8758
2019-04-25T00:23:43.774Z,8.6104
2019-04-25T00:23:54.244Z,10.0617
2019-04-25T00:24:04.254Z,10.5073
2019-04-25T00:24:12.200Z,10.9559
2019-04-25T00:24:24.236Z,10.9055
2019-04-25T00:24:32.073Z,11.6503
2019-04-25T00:24:43.283Z,11.1594
2019-04-25T00:24:54.202Z,10.9390
2019-04-25T00:25:14.371Z,10.0306
2019-04-25T00:25:17.564Z,9.2606
2019-04-25T00:25:22.239Z,9.5807
2019-04-25T00:25:32.257Z,10.1550
2019-04-25T00:25:45.409Z,10.7770
2019-04-25T00:25:53.238Z,12.1687
2019-04-25T00:26:03.241Z,12.1789
2019-04-25T00:26:13.237Z,11.6515
2019-04-25T00:26:23.217Z,10.4801
2019-04-25T00:26:33.254Z,11.0072
2019-04-25T00:26:44.413Z,12.6840
2019-04-25T00:26:53.461Z,11.7797
2019-04-25T00:27:02.301Z,10.7661
2019-04-25T00:27:12.247Z,9.4703
2019-04-25T00:27:23.717Z,8.7990
2019-04-25T00:27:32.015Z,10.5466
2019-04-25T00:27:43.586Z,11.3706
2019-04-25T00:27:51.655Z,10.3759
2019-04-25T00:28:02.226Z,9.5364
2019-04-25T00:28:12.246Z,9.7037
2019-04-25T00:28:22.250Z,9.3044
2019-04-25T00:28:32.237Z,8.3400
2019-04-25T00:28:43.580Z,9.0632
2019-04-25T00:28:52.402Z,11.1936
2019-04-25T00:29:03.999Z,11.3727
2019-04-25T00:29:12.918Z,12.5507
2019-04-25T00:29:23.272Z,11.8240
2019-04-25T00:29:33.246Z,12.1358
2019-04-25T00:29:44.521Z,10.8983
2019-04-25T00:29:52.936Z,9.8085
2019-04-25T00:30:03.232Z,9.7252
2019-04-25T00:30:13.240Z,10.9083
2019-04-25T00:30:23.223Z,11.2145
2019-04-25T00:30:33.265Z,10.0683
2019-04-25T00:30:44.419Z,11.7918
2019-04-25T00:30:52.253Z,11.7767
2019-04-25T00:31:03.239Z,11.4591
2019-04-25T00:31:13.241Z,10.7994
2019-04-25T00:31:24.771Z,11.5234
2019-04-25T00:31:33.232Z,12.0304
2019-04-25T00:31:43.779Z,12.7970
2019-04-25T00:31:54.241Z,12.5043
2019-04-25T00:32:01.696Z,12.0941
2019-04-25T00:32:13.263Z,10.6041
2019-04-25T00:32:23.246Z,9.5861
2019-04-25T00:32:33.272Z,9.2457
2019-04-25T00:32:44.167Z,9.0740
2019-04-25T00:32:51.241Z,9.9923
2019-04-25T00:33:02.050Z,10.5284
2019-04-25T00:33:12.238Z,11.0184
2019-04-25T00:33:22.284Z,9.9190
2019-04-25T00:33:32.253Z,10.2332
2019-04-25T00:33:44.178Z,12.1053
2019-04-25T00:33:53.294Z,12.6857
2019-04-25T00:34:03.248Z,11.7156
2019-04-25T00:34:13.246Z,10.4655
2019-04-25T00:34:23.250Z,10.3516
2019-04-25T00:34:33.708Z,10.7610
2019-04-25T00:34:44.491Z,10.8479
2019-04-25T00:34:52.847Z,10.8495
2019-04-25T00:35:02.221Z,10.7976
2019-04-25T00:35:12.236Z,10.5079
2019-04-25T00:35:22.239Z,9.2287
2019-04-25T00:35:32.239Z,10.7887
2019-04-25T00:35:43.487Z,12.0099
2019-04-25T00:35:51.739Z,11.9937
2019-04-25T00:36:03.864Z,11.2614
2019-04-25T00:36:14.228Z,9.5465
2019-04-25T00:36:21.841Z,9.4274
2019-04-25T00:36:32.236Z,9.2460
2019-04-25T00:36:43.480Z,9.5837
2019-04-25T00:36:51.564Z,11.6005
2019-04-25T00:37:04.272Z,12.2392
2019-04-25T00:37:13.739Z,11.9365
2019-04-25T00:37:22.561Z,12.0200
2019-04-25T00:37:32.388Z,9.5799
2019-04-25T00:37:44.278Z,9.9194
2019-04-25T00:37:52.554Z,10.6566
2019-04-25T00:38:02.464Z,12.0869
2019-04-25T00:38:12.195Z,12.0220
2019-04-25T00:38:22.317Z,12.5904
2019-04-25T00:38:32.246Z,13.2065
2019-04-25T00:38:46.222Z,12.9322
2019-04-25T00:38:52.282Z,13.5568
2019-04-25T00:39:03.237Z,13.7098
2019-04-25T00:39:13.215Z,12.2099
2019-04-25T00:39:23.235Z,11.2670
2019-04-25T00:39:33.201Z,10.4977
2019-04-25T00:39:44.740Z,10.0723
2019-04-25T00:39:52.242Z,10.4319
2019-04-25T00:40:02.281Z,12.4960
2019-04-25T00:40:13.477Z,11.5145
2019-04-25T00:40:23.257Z,10.5413
2019-04-25T00:40:33.247Z,9.3793
2019-04-25T00:40:43.944Z,9.6308
2019-04-25T00:40:52.436Z,9.9166
2019-04-25T00:41:03.225Z,9.2062
2019-04-25T00:41:13.239Z,9.2616
2019-04-25T00:41:23.252Z,10.4644
2019-04-25T00:41:34.193Z,11.6023
2019-04-25T00:41:44.059Z,11.3646
2019-04-25T00:41:52.227Z,11.2772
2019-04-25T00:42:02.505Z,10.9307
2019-04-25T00:42:12.319Z,11.4187
2019-04-25T00:42:23.225Z,12.4031
2019-04-25T00:42:33.244Z,13.6045
2019-04-25T00:42:44.682Z,13.0724
2019-04-25T00:42:53.699Z,13.0825
2019-04-25T00:43:04.232Z,12.6975
2019-04-25T00:43:11.478Z,12.3795
2019-04-25T00:43:21.527Z,10.2701
2019-04-25T00:43:33.220Z,9.4464
2019-04-25T00:43:44.044Z,9.6734
2019-04-25T00:43:52.523Z,9.4680
2019-04-25T00:44:02.450Z,10.6889
2019-04-25T00:44:12.130Z,11.5341
2019-04-25T00:44:22.248Z,11.3482
2019-04-25T00:44:32.247Z,10.5854
2019-04-25T00:44:44.553Z,9.4572
2019-04-25T00:44:52.514Z,10.4821
2019-04-25T00:45:02.443Z,11.6987
2019-04-25T00:45:13.986Z,12.3903
2019-04-25T00:45:22.329Z,10.9167
2019-04-25T00:45:32.228Z,10.6226
2019-04-25T00:45:43.587Z,10.1108
2019-04-25T00:45:54.221Z,10.6959
2019-04-25T00:46:01.593Z,11.1671
2019-04-25T00:46:12.248Z,12.7040
2019-04-25T00:46:22.615Z,12.9819
2019-04-25T00:46:32.318Z,11.6580
2019-04-25T00:46:46.373Z,12.1838
2019-04-25T00:46:54.309Z,12.1505
2019-04-25T00:47:03.235Z,11.1554
2019-04-25T00:47:12.247Z,11.0056
2019-04-25T00:47:22.261Z,11.9512
2019-04-25T00:47:32.248Z,11.4793
2019-04-25T00:47:43.506Z,10.8989
2019-04-25T00:47:54.246Z,11.0302
2019-04-25T00:48:04.402Z,12.5864
2019-04-25T00:48:14.236Z,11.9611
2019-04-25T00:48:22.314Z,11.7761
2019-04-25T00:48:32.236Z,11.2694
2019-04-25T00:48:43.154Z,11.5732
2019-04-25T00:48:53.257Z,11.6319
2019-04-25T00:49:03.233Z,12.2399
2019-04-25T00:49:13.247Z,11.4442
2019-04-25T00:49:23.695Z,9.6765
2019-04-25T00:49:33.232Z,9.6660
2019-04-25T00:49:44.859Z,11.3172
2019-04-25T00:49:53.186Z,11.2919
2019-04-25T00:50:03.232Z,10.7757
2019-04-25T00:50:13.242Z,11.2553
2019-04-25T00:50:23.247Z,10.3035
2019-04-25T00:50:33.224Z,10.4114
2019-04-25T00:50:44.363Z,11.1597
2019-04-25T00:50:54.644Z,11.4764
2019-04-25T00:51:04.251Z,11.7089
2019-04-25T00:51:13.251Z,11.0127
2019-04-25T00:51:23.254Z,11.0069
2019-04-25T00:51:33.274Z,11.1175
2019-04-25T00:51:43.764Z,10.8690
2019-04-25T00:51:52.356Z,11.3898
2019-04-25T00:52:03.273Z,11.1411
2019-04-25T00:52:13.234Z,12.1717
2019-04-25T00:52:23.247Z,11.5244
2019-04-25T00:52:33.232Z,10.3098
2019-04-25T00:52:43.896Z,10.7962
2019-04-25T00:52:53.602Z,11.4695
2019-04-25T00:53:03.244Z,11.7136
2019-04-25T00:53:13.212Z,12.3823
2019-04-25T00:53:23.224Z,11.4502
2019-04-25T00:53:33.265Z,10.0860
2019-04-25T00:53:43.719Z,10.0137
2019-04-25T00:53:53.695Z,11.5278
2019-04-25T00:54:02.429Z,11.0860
2019-04-25T00:54:12.253Z,10.4989
2019-04-25T00:54:22.705Z,10.2461
2019-04-25T00:54:33.223Z,10.2459
2019-04-25T00:54:44.179Z,10.9237
2019-04-25T00:54:52.630Z,10.2601
2019-04-25T00:55:03.236Z,11.5868
2019-04-25T00:55:25.931Z,13.0051
2019-04-25T00:55:28.601Z,13.1662
2019-04-25T00:55:31.499Z,12.8695
2019-04-25T00:55:44.371Z,11.5088
2019-04-25T00:55:54.247Z,10.8961
2019-04-25T00:56:01.544Z,10.4435
2019-04-25T00:56:14.236Z,10.8716
2019-04-25T00:56:22.368Z,10.2054
2019-04-25T00:56:34.247Z,10.4447
2019-04-25T00:56:43.225Z,11.7337
2019-04-25T00:56:52.817Z,11.5181
2019-04-25T00:57:02.169Z,10.2963
2019-04-25T00:57:12.259Z,10.5078
2019-04-25T00:57:22.248Z,11.3093
2019-04-25T00:57:32.230Z,9.9170
2019-04-25T00:57:43.525Z,8.6872
2019-04-25T00:57:52.562Z,9.8995
2019-04-25T00:58:03.367Z,11.5948
2019-04-25T00:58:13.229Z,11.1210
2019-04-25T00:58:23.223Z,11.3669
2019-04-25T00:58:33.256Z,11.8499
2019-04-25T00:58:44.063Z,14.2496
2019-04-25T00:58:53.146Z,13.6246
2019-04-25T00:59:01.945Z,13.0875
2019-04-25T00:59:13.986Z,13.4150
2019-04-25T00:59:22.162Z,11.4563
2019-04-25T00:59:32.214Z,11.5525
2019-04-25T00:59:42.974Z,10.9010
2019-04-25T00:59:52.835Z,10.6128
2019-04-25T01:00:03.234Z,11.5474
2019-04-25T01:00:12.239Z,12.7875
2019-04-25T01:00:22.267Z,13.4134
2019-04-25T01:00:32.688Z,12.5235
2019-04-25T01:00:43.291Z,11.8042
2019-04-25T01:00:54.224Z,9.9376
2019-04-25T01:01:01.997Z,9.4710
2019-04-25T01:01:12.252Z,10.8010
2019-04-25T01:01:22.206Z,10.5299
2019-04-25T01:01:32.189Z,10.0559
2019-04-25T01:01:44.239Z,10.3684
2019-04-25T01:01:53.266Z,9.4632
2019-04-25T01:02:04.224Z,9.7030
2019-04-25T01:02:11.514Z,9.6029
2019-04-25T01:02:21.531Z,10.8176
2019-04-25T01:02:34.237Z,12.1711
2019-04-25T01:02:45.252Z,13.7581
2019-04-25T01:02:53.427Z,13.4720
2019-04-25T01:03:01.600Z,12.3146
2019-04-25T01:03:13.277Z,11.1266
2019-04-25T01:03:23.246Z,10.5082
2019-04-25T01:03:33.245Z,11.9071
2019-04-25T01:03:44.124Z,13.1700
2019-04-25T01:03:53.319Z,13.7811
2019-04-25T01:04:03.247Z,11.6535
2019-04-25T01:04:13.243Z,11.7279
2019-04-25T01:04:22.251Z,10.8796
2019-04-25T01:04:33.585Z,12.0312
2019-04-25T01:04:43.879Z,12.3922
2019-04-25T01:04:52.057Z,11.3495
2019-04-25T01:05:03.245Z,11.5541
2019-04-25T01:05:13.249Z,11.5510
2019-04-25T01:05:23.242Z,10.9485
2019-04-25T01:05:33.245Z,9.6461
2019-04-25T01:05:44.319Z,9.6547
2019-04-25T01:05:53.110Z,10.8118
2019-04-25T01:06:03.829Z,12.6237
2019-04-25T01:06:12.042Z,13.1262
2019-04-25T01:06:22.239Z,12.0547
2019-04-25T01:06:32.247Z,12.5045
2019-04-25T01:06:42.207Z,11.9595
2019-04-25T01:06:52.026Z,12.1140
2019-04-25T01:07:03.256Z,10.8021
2019-04-25T01:07:13.235Z,10.3711
2019-04-25T01:07:22.474Z,11.6563
2019-04-25T01:07:34.373Z,11.5260
2019-04-25T01:07:44.384Z,10.7676
2019-04-25T01:07:54.404Z,10.8669
2019-04-25T01:08:02.128Z,9.4077
2019-04-25T01:08:12.047Z,10.1305
2019-04-25T01:08:24.256Z,10.1692
2019-04-25T01:08:31.982Z,9.9702
2019-04-25T01:08:44.295Z,10.1691
2019-04-25T01:08:55.832Z,10.4584
2019-04-25T01:09:03.258Z,10.6899
2019-04-25T01:09:13.247Z,11.6526
2019-04-25T01:09:23.251Z,11.7395
2019-04-25T01:09:33.257Z,11.7966
2019-04-25T01:09:43.487Z,10.9925
2019-04-25T01:09:54.572Z,10.1125
2019-04-25T01:10:02.471Z,10.0764
2019-04-25T01:10:12.245Z,10.1610
2019-04-25T01:10:23.114Z,11.4026
2019-04-25T01:10:33.233Z,12.3364
2019-04-25T01:10:44.298Z,11.4356
2019-04-25T01:10:54.271Z,10.6051
2019-04-25T01:11:01.780Z,10.3820
2019-04-25T01:11:12.238Z,12.0553
2019-04-25T01:11:22.256Z,11.0485
2019-04-25T01:11:32.216Z,10.2517
2019-04-25T01:11:42.475Z,11.3811
2019-04-25T01:11:53.128Z,11.1636
2019-04-25T01:12:04.099Z,11.6266
2019-04-25T01:12:14.247Z,10.7558
2019-04-25T01:12:21.642Z,10.8826
2019-04-25T01:12:32.235Z,10.8052
2019-04-25T01:12:42.278Z,10.5804
2019-04-25T01:12:53.142Z,10.1864
2019-04-25T01:13:03.236Z,9.4271
2019-04-25T01:13:13.223Z,10.0546
2019-04-25T01:13:23.240Z,9.6846
2019-04-25T01:13:33.267Z,12.8299
2019-04-25T01:13:44.561Z,12.4822
2019-04-25T01:13:54.436Z,10.8027
2019-04-25T01:14:02.153Z,11.4919
2019-04-25T01:14:11.929Z,10.6073
2019-04-25T01:14:22.257Z,9.9590
2019-04-25T01:14:33.746Z,10.4587
2019-04-25T01:14:44.201Z,10.7872
2019-04-25T01:14:52.879Z,10.0327
2019-04-25T01:15:03.248Z,10.3131
2019-04-25T01:15:13.257Z,10.8494
2019-04-25T01:15:23.252Z,10.4236
2019-04-25T01:15:33.236Z,9.1292
2019-04-25T01:15:43.219Z,8.6899
2019-04-25T01:15:53.724Z,8.7740
2019-04-25T01:16:04.139Z,8.0823
2019-04-25T01:16:12.010Z,8.4390
2019-04-25T01:16:22.243Z,11.1145
2019-04-25T01:16:32.271Z,10.9971
2019-04-25T01:16:42.236Z,10.7834
2019-04-25T01:16:53.006Z,9.9544
2019-04-25T01:17:01.737Z,10.1297
2019-04-25T01:17:12.258Z,11.2395
2019-04-25T01:17:22.963Z,11.0283
2019-04-25T01:17:33.248Z,9.9268
2019-04-25T01:17:43.247Z,10.5209
2019-04-25T01:17:53.453Z,10.3315
2019-04-25T01:18:03.278Z,11.2176
2019-04-25T01:18:13.253Z,10.0031
2019-04-25T01:18:23.289Z,9.6017
2019-04-25T01:18:33.707Z,9.6334
2019-04-25T01:18:43.672Z,10.5815
2019-04-25T01:18:54.565Z,11.3184
2019-04-25T01:19:03.539Z,10.7644
2019-04-25T01:19:13.512Z,11.7666
2019-04-25T01:19:23.521Z,11.9415
2019-04-25T01:19:34.450Z,12.5275
2019-04-25T01:19:41.248Z,12.8659
2019-04-25T01:19:51.246Z,13.1801
2019-04-25T01:20:01.258Z,11.9859
2019-04-25T01:20:11.243Z,12.1528
2019-04-25T01:20:24.238Z,12.1872
2019-04-25T01:20:34.510Z,11.9200
2019-04-25T01:20:45.433Z,10.5429
2019-04-25T01:20:53.626Z,9.8663
2019-04-25T01:21:04.510Z,11.3492
2019-04-25T01:21:14.246Z,11.7494
2019-04-25T01:21:25.300Z,12.3987
2019-04-25T01:21:33.930Z,12.4625
2019-04-25T01:21:45.512Z,11.9383
2019-04-25T01:21:54.152Z,12.5691
2019-04-25T01:22:03.764Z,13.4274
2019-04-25T01:22:11.256Z,12.3406
2019-04-25T01:22:21.255Z,11.9366
2019-04-25T01:22:31.258Z,11.3537
2019-04-25T01:22:41.283Z,11.6502
2019-04-25T01:22:56.952Z,12.2748
2019-04-25T01:23:01.243Z,11.5611
2019-04-25T01:23:14.244Z,10.2455
2019-04-25T01:23:24.252Z,10.7466
2019-04-25T01:23:31.240Z,10.7714
2019-04-25T01:23:43.544Z,10.0532
2019-04-25T01:23:54.420Z,9.9665
2019-04-25T01:24:04.381Z,9.3185
2019-04-25T01:24:11.259Z,10.1366
2019-04-25T01:24:24.207Z,10.6265
2019-04-25T01:24:31.259Z,10.3486
2019-04-25T01:24:43.963Z,10.9496
2019-04-25T01:24:55.165Z,10.9626
2019-04-25T01:25:03.843Z,10.6051
2019-04-25T01:25:14.261Z,11.0551
2019-04-25T01:25:21.259Z,10.5778
2019-04-25T01:25:40.971Z,9.0008
2019-04-25T01:25:44.709Z,7.4625
2019-04-25T01:25:53.825Z,7.3396
2019-04-25T01:26:04.238Z,9.2980
2019-04-25T01:26:11.244Z,10.2065
2019-04-25T01:26:24.282Z,10.4607
2019-04-25T01:26:34.252Z,12.8652
2019-04-25T01:26:44.236Z,13.4333
2019-04-25T01:26:51.686Z,14.4081
2019-04-25T01:27:01.257Z,13.3026
2019-04-25T01:27:14.243Z,11.5691
2019-04-25T01:27:21.343Z,11.0641
2019-04-25T01:27:31.250Z,11.5342
2019-04-25T01:27:41.256Z,11.3353
2019-04-25T01:27:53.669Z,9.4018
2019-04-25T01:28:01.256Z,8.2306
2019-04-25T01:28:11.248Z,9.1232
2019-04-25T01:28:21.248Z,9.9691
2019-04-25T01:28:31.241Z,10.2278
2019-04-25T01:28:41.251Z,10.5952
2019-04-25T01:28:51.876Z,10.1705
2019-04-25T01:29:03.633Z,10.1774
2019-04-25T01:29:14.249Z,10.4698
2019-04-25T01:29:24.254Z,9.9864
2019-04-25T01:29:31.238Z,9.6621
2019-04-25T01:29:41.247Z,10.4368
2019-04-25T01:29:51.939Z,9.9745
2019-04-25T01:30:02.257Z,9.4992
2019-04-25T01:30:12.216Z,9.0449
2019-04-25T01:30:23.925Z,9.1199
2019-04-25T01:30:34.240Z,8.4946
2019-04-25T01:30:44.212Z,11.3738
2019-04-25T01:30:51.926Z,11.3292
2019-04-25T01:31:03.774Z,11.3619
2019-04-25T01:31:11.270Z,10.7184
2019-04-25T01:31:24.910Z,9.2740
2019-04-25T01:31:33.575Z,9.7454
2019-04-25T01:31:43.497Z,9.7245
2019-04-25T01:31:54.398Z,9.0447
2019-04-25T01:32:03.248Z,8.8270
2019-04-25T01:32:13.966Z,8.4584
2019-04-25T01:32:24.256Z,10.5226
2019-04-25T01:32:31.246Z,11.6815
2019-04-25T01:32:41.243Z,11.7814
2019-04-25T01:32:51.272Z,10.8999
2019-04-25T01:33:04.300Z,10.6072
2019-04-25T01:33:11.277Z,10.8132
2019-04-25T01:33:24.253Z,11.1045
2019-04-25T01:33:33.413Z,9.5018
2019-04-25T01:33:43.362Z,9.1081
2019-04-25T01:33:54.622Z,8.9254
2019-04-25T01:34:02.240Z,9.0964
2019-04-25T01:34:12.247Z,10.2547
2019-04-25T01:34:22.212Z,11.4012
2019-04-25T01:34:34.167Z,11.2550
2019-04-25T01:34:41.256Z,9.6881
2019-04-25T01:34:53.865Z,8.5513
2019-04-25T01:35:04.011Z,8.6013
2019-04-25T01:35:14.250Z,8.6721
2019-04-25T01:35:24.281Z,9.3283
2019-04-25T01:35:31.249Z,10.2073
2019-04-25T01:35:44.923Z,10.6481
2019-04-25T01:35:54.455Z,13.4364
2019-04-25T01:36:04.252Z,13.6293
2019-04-25T01:36:11.248Z,12.6902
2019-04-25T01:36:21.249Z,10.8951
2019-04-25T01:36:31.243Z,11.1706
2019-04-25T01:36:41.327Z,12.9576
2019-04-25T01:36:51.246Z,13.3910
2019-04-25T01:37:01.264Z,12.6988
2019-04-25T01:37:11.247Z,10.8659
2019-04-25T01:37:21.247Z,10.2805
2019-04-25T01:37:31.266Z,10.1712
2019-04-25T01:37:43.834Z,9.9670
2019-04-25T01:37:55.177Z,10.0872
2019-04-25T01:38:03.643Z,11.2318
2019-04-25T01:38:13.903Z,11.5715
2019-04-25T01:38:24.258Z,10.6465
2019-04-25T01:38:34.245Z,10.8683
2019-04-25T01:38:41.246Z,10.9129
2019-04-25T01:38:51.247Z,11.9221
2019-04-25T01:39:01.257Z,11.1989
2019-04-25T01:39:14.390Z,11.0171
2019-04-25T01:39:21.249Z,11.2994
2019-04-25T01:39:34.269Z,10.3529
2019-04-25T01:39:41.247Z,10.5210
2019-04-25T01:39:55.318Z,10.3337
2019-04-25T01:40:04.146Z,9.9819
2019-04-25T01:40:11.244Z,8.9159
2019-04-25T01:40:21.242Z,7.9867
2019-04-25T01:40:31.240Z,7.8013
2019-04-25T01:40:41.254Z,8.9308
2019-04-25T01:40:51.265Z,9.7884
2019-04-25T01:41:01.257Z,9.9533
2019-04-25T01:41:14.637Z,11.7087
2019-04-25T01:41:24.334Z,13.3358
2019-04-25T01:41:31.242Z,13.1266
2019-04-25T01:41:41.254Z,13.6616
2019-04-25T01:41:51.333Z,12.9757
2019-04-25T01:42:05.285Z,11.2854
2019-04-25T01:42:14.257Z,11.0575
2019-04-25T01:42:21.259Z,10.7665
2019-04-25T01:42:31.236Z,9.5448
2019-04-25T01:42:44.247Z,10.1967
2019-04-25T01:42:51.553Z,11.1900
2019-04-25T01:43:04.249Z,10.5502
2019-04-25T01:43:14.249Z,8.9535
2019-04-25T01:43:21.246Z,8.8063
2019-04-25T01:43:31.242Z,9.5784
2019-04-25T01:43:41.257Z,9.5547
2019-04-25T01:43:53.105Z,10.5383
2019-04-25T01:44:04.572Z,10.8080
2019-04-25T01:44:11.249Z,10.5359
2019-04-25T01:44:21.257Z,10.3386
2019-04-25T01:44:31.252Z,10.6965
2019-04-25T01:44:44.246Z,10.2935
2019-04-25T01:44:51.604Z,10.3318
2019-04-25T01:45:01.262Z,9.9040
2019-04-25T01:45:14.258Z,9.6532
2019-04-25T01:45:21.246Z,9.0950
2019-04-25T01:45:31.249Z,10.5460
2019-04-25T01:45:44.254Z,9.4641
2019-04-25T01:45:54.910Z,9.5943
2019-04-25T01:46:03.379Z,10.7222
2019-04-25T01:46:14.762Z,11.3750
2019-04-25T01:46:22.237Z,12.5759
2019-04-25T01:46:32.249Z,12.6115
2019-04-25T01:46:41.246Z,11.2182
2019-04-25T01:46:51.854Z,9.8848
2019-04-25T01:47:04.068Z,9.4497
2019-04-25T01:47:14.245Z,10.3656
2019-04-25T01:47:21.254Z,11.3779
2019-04-25T01:47:39.250Z,9.9570
2019-04-25T01:47:43.442Z,9.8006
2019-04-25T01:47:54.089Z,9.2810
2019-04-25T01:48:01.320Z,8.8580
2019-04-25T01:48:11.240Z,8.3023
2019-04-25T01:48:24.253Z,8.9798
2019-04-25T01:48:34.248Z,9.4665
2019-04-25T01:48:41.248Z,10.0911
2019-04-25T01:48:52.199Z,9.3155
2019-04-25T01:49:04.306Z,9.8676
2019-04-25T01:49:14.223Z,10.2795
2019-04-25T01:49:24.203Z,10.9086
2019-04-25T01:49:31.252Z,11.2602
2019-04-25T01:49:41.256Z,10.2796
2019-04-25T01:49:52.262Z,12.0844
2019-04-25T01:50:03.825Z,12.6394
2019-04-25T01:50:11.241Z,11.8871
2019-04-25T01:50:21.248Z,10.8254
2019-04-25T01:50:35.269Z,9.8096
2019-04-25T01:50:43.776Z,10.1659
2019-04-25T01:50:51.246Z,9.1641
2019-04-25T01:51:01.260Z,9.2956
2019-04-25T01:51:11.246Z,9.7450
2019-04-25T01:51:24.249Z,10.3622
2019-04-25T01:51:31.251Z,9.8746
2019-04-25T01:51:41.259Z,9.8868
2019-04-25T01:51:51.246Z,8.9386
2019-04-25T01:52:01.247Z,9.9451
2019-04-25T01:52:11.260Z,10.1346
2019-04-25T01:52:24.234Z,10.6085
2019-04-25T01:52:34.228Z,11.2598
2019-04-25T01:52:41.258Z,12.7822
2019-04-25T01:52:51.264Z,12.8634
2019-04-25T01:53:04.266Z,12.6937
2019-04-25T01:53:11.246Z,11.4078
2019-04-25T01:53:21.247Z,11.2298
2019-04-25T01:53:35.516Z,11.0016
2019-04-25T01:53:44.266Z,10.2721
2019-04-25T01:53:51.249Z,9.9547
2019-04-25T01:54:04.273Z,10.0496
2019-04-25T01:54:14.252Z,11.0845
2019-04-25T01:54:21.259Z,10.8451
2019-04-25T01:54:34.278Z,11.1007
2019-04-25T01:54:41.244Z,10.7650
2019-04-25T01:54:51.244Z,10.9280
2019-04-25T01:55:05.553Z,10.9946
2019-04-25T01:55:13.751Z,11.4675
2019-04-25T01:55:23.469Z,11.0141
2019-04-25T01:55:33.641Z,10.7326
2019-04-25T01:55:53.616Z,9.2831
2019-04-25T01:56:00.584Z,9.6572
2019-04-25T01:56:05.223Z,10.3038
2019-04-25T01:56:13.593Z,11.0125
2019-04-25T01:56:24.688Z,10.0381
2019-04-25T01:56:33.279Z,11.4743
2019-04-25T01:56:44.290Z,10.7360
2019-04-25T01:56:55.015Z,10.7670
2019-04-25T01:57:04.372Z,9.9024
2019-04-25T01:57:14.383Z,9.0910
2019-04-25T01:57:21.259Z,9.2553
2019-04-25T01:57:34.246Z,8.9955
2019-04-25T01:57:43.827Z,9.5853
2019-04-25T01:57:54.570Z,9.5249
2019-04-25T01:58:03.733Z,9.5112
2019-04-25T01:58:11.246Z,9.8716
2019-04-25T01:58:24.253Z,8.7335
2019-04-25T01:58:34.251Z,10.1794
2019-04-25T01:58:41.265Z,11.7889
2019-04-25T01:58:51.246Z,12.7464
2019-04-25T01:59:03.907Z,11.4535
2019-04-25T01:59:11.242Z,11.3315
2019-04-25T01:59:21.238Z,10.6436
2019-04-25T01:59:31.244Z,9.5286
2019-04-25T01:59:41.247Z,10.8445
2019-04-25T01:59:55.419Z,11.3509
2019-04-25T02:00:03.928Z,11.1896
2019-04-25T02:00:11.241Z,12.2288
2019-04-25T02:00:24.259Z,10.0074
2019-04-25T02:00:31.249Z,10.3917
2019-04-25T02:00:41.256Z,11.1173
2019-04-25T02:00:52.100Z,10.9224
2019-04-25T02:01:01.242Z,9.6144
2019-04-25T02:01:11.255Z,9.4781
2019-04-25T02:01:24.245Z,8.2859
2019-04-25T02:01:31.245Z,9.2042
2019-04-25T02:01:44.236Z,9.3696
2019-04-25T02:01:54.581Z,9.2386